Olmeca — V7NB3 — position and weather

sailwx.info

Track history (hours):
 
Tides and Currents Weather Stations Pressure Air Temp Water Temp Dewpoint Dewpoint Depression Visibility Wind Speed Wind Dir Waves Ship Positions

Olmeca

Last reported at 2018-Feb-16 20:04 UTC. Time now 2018-Feb-25 12:02 UTC.
Position N 19°12' W 095°49'.
Warning: this ship's position is 8 days out of date.

Length 129 m; draft 9.6 m.

Type: Ship. MMSI: 538002937.

Date/timePositionNaut miles runAvg speedWind from/ knotsBaromVisibWave heightAir tempDewpointWater temp
2018-Feb-16 20:04N 19°12' W 095°49'111.6
2018-Feb-16 20:00N 19°12' W 095°50'611.6
2018-Feb-16 19:30N 19°12' W 095°56'611.1
2018-Feb-16 18:59N 19°10' W 096°02'4 8.3
2018-Feb-16 18:30N 19°12' W 096°06'3 5.1
2018-Feb-16 17:59N 19°13' W 096°08'0 0.0
2018-Feb-16 17:26N 19°13' W 096°08'0 0.0
2018-Feb-16 16:56N 19°13' W 096°08'0 0.0
2018-Feb-16 16:20N 19°13' W 096°08'0 0.0
2018-Feb-16 15:44N 19°13' W 096°08'0 0.0
2018-Feb-16 15:26N 19°13' W 096°08'0 0.0
2018-Feb-16 14:50N 19°13' W 096°08'0 0.0
2018-Feb-16 14:20N 19°13' W 096°08'0 0.0
2018-Feb-16 13:44N 19°13' W 096°08'0 0.0
2018-Feb-16 13:26N 19°13' W 096°08'0 0.0
2018-Feb-16 12:56N 19°13' W 096°08'0 0.0
2018-Feb-16 12:14N 19°13' W 096°08'0 0.0
2018-Feb-16 11:44N 19°13' W 096°08'0 0.0
2018-Feb-16 10:56N 19°13' W 096°08'0 0.0
2018-Feb-16 10:20N 19°13' W 096°08'0 0.0
2018-Feb-16 09:50N 19°13' W 096°08'0 0.0
2018-Feb-16 09:29N 19°13' W 096°08'0 0.0
2018-Feb-16 08:53N 19°13' W 096°08'0 0.0
2018-Feb-16 08:20N 19°13' W 096°08'0 0.0
2018-Feb-16 07:56N 19°13' W 096°08'0 0.0
2018-Feb-16 07:20N 19°13' W 096°08'0 0.0
2018-Feb-16 06:50N 19°13' W 096°08'0 0.0
2018-Feb-16 06:29N 19°13' W 096°08'0 0.0
2018-Feb-16 05:47N 19°13' W 096°08'0 0.0
2018-Feb-16 05:11N 19°13' W 096°08'0 0.0
2018-Feb-16 04:53N 19°13' W 096°08'0 0.0
2018-Feb-16 04:26N 19°13' W 096°08'0 0.0
2018-Feb-16 03:53N 19°13' W 096°08'0 0.0
2018-Feb-16 03:14N 19°13' W 096°08'0 0.0
2018-Feb-16 02:59N 19°13' W 096°08'0 0.0
2018-Feb-16 02:26N 19°13' W 096°08'0 0.0
2018-Feb-16 01:56N 19°13' W 096°08'0 0.0
2018-Feb-16 01:20N 19°13' W 096°08'0 0.0
2018-Feb-16 00:59N 19°13' W 096°08'0 0.0
2018-Feb-16 00:20N 19°13' W 096°08'0 0.0
2018-Feb-15 23:44N 19°13' W 096°08'0 0.0
2018-Feb-15 23:20N 19°13' W 096°08'0 0.0
2018-Feb-15 22:59N 19°13' W 096°08'0 0.0
2018-Feb-15 22:20N 19°13' W 096°08'0 0.0
2018-Feb-15 21:56N 19°13' W 096°08'0 0.0
2018-Feb-15 21:26N 19°13' W 096°08'0 0.0
2018-Feb-15 20:56N 19°13' W 096°08'0 0.0
2018-Feb-15 20:29N 19°13' W 096°08'0 0.1
2018-Feb-15 19:56N 19°13' W 096°08'0 0.1
2018-Feb-15 19:26N 19°13' W 096°08'0 0.0
2018-Feb-15 18:56N 19°13' W 096°08'0 0.5
2018-Feb-15 18:30N 19°13' W 096°08'4 7.1
2018-Feb-15 17:59N 19°12' W 096°04'3 6.3
2018-Feb-15 17:30N 19°10' W 096°02'0 0.4
2018-Feb-15 17:00N 19°10' W 096°02'0 0.0
2018-Feb-15 16:30N 19°10' W 096°02'0 0.0
2018-Feb-15 15:52N 19°10' W 096°02'0 0.0
2018-Feb-15 15:30N 19°10' W 096°02'0 0.0
2018-Feb-15 15:00N 19°10' W 096°02'0 0.0
2018-Feb-15 14:28N 19°10' W 096°02'0 0.0
2018-Feb-15 14:00N 19°10' W 096°02'0 0.0
2018-Feb-15 13:30N 19°10' W 096°02'0 0.0
2018-Feb-15 13:00N 19°10' W 096°02'0 0.0
2018-Feb-15 12:23N 19°10' W 096°02'0 0.0
2018-Feb-15 11:58N 19°10' W 096°02'0 0.0
2018-Feb-15 11:28N 19°10' W 096°02'0 0.0
2018-Feb-15 10:56N 19°10' W 096°02'0 0.0
2018-Feb-15 10:29N 19°10' W 096°02'0 0.0
2018-Feb-15 09:58N 19°10' W 096°02'0 0.0
2018-Feb-15 09:30N 19°10' W 096°02'0 0.0
2018-Feb-15 09:00N 19°10' W 096°02'0 0.1
2018-Feb-15 08:30N 19°10' W 096°02'1 2.2
2018-Feb-15 08:00N 19°11' W 096°01'5 8.5
2018-Feb-15 07:27N 19°15' W 095°60'3 6.2
2018-Feb-15 07:00N 19°18' W 096°00'711.3
2018-Feb-15 06:24N 19°25' W 096°00'  
2018-Feb-10 00:43N 29°33' W 094°54'210.2
2018-Feb-10 00:30N 29°35' W 094°56'510.3
2018-Feb-10 00:00N 29°39' W 094°58'5 8.4
2018-Feb-09 23:25N 29°43' W 095°01'7 5.6
2018-Feb-09 22:12N 29°44' W 095°09'4 0.2
2018-Feb-08 20:30N 29°46' W 095°05'8 8.3
2018-Feb-08 19:30N 29°39' W 094°58'1111.2
2018-Feb-08 18:30N 29°30' W 094°52'  
Track history (hours):
 
Tides and Currents Weather Stations Pressure Air Temp Water Temp Dewpoint Dewpoint Depression Visibility Wind Speed Wind Dir Waves Ship Positions

Olmeca

Last reported at 2018-Feb-16 20:04 UTC. Time now 2018-Feb-25 12:02 UTC.
Position N 19°12' W 095°49'.
Warning: this ship's position is 8 days out of date.

Length 129 m; draft 9.6 m.

Type: Ship. MMSI: 538002937.

Date/timePositionNaut miles runAvg speedWind from/ knotsBaromVisibWave heightAir tempDewpointWater temp
2018-Feb-16 20:04N 19°12' W 095°49'111.6
2018-Feb-16 20:00N 19°12' W 095°50'611.6
2018-Feb-16 19:30N 19°12' W 095°56'611.1
2018-Feb-16 18:59N 19°10' W 096°02'4 8.3
2018-Feb-16 18:30N 19°12' W 096°06'3 5.1
2018-Feb-16 17:59N 19°13' W 096°08'0 0.0
2018-Feb-16 17:26N 19°13' W 096°08'0 0.0
2018-Feb-16 16:56N 19°13' W 096°08'0 0.0
2018-Feb-16 16:20N 19°13' W 096°08'0 0.0
2018-Feb-16 15:44N 19°13' W 096°08'0 0.0
2018-Feb-16 15:26N 19°13' W 096°08'0 0.0
2018-Feb-16 14:50N 19°13' W 096°08'0 0.0
2018-Feb-16 14:20N 19°13' W 096°08'0 0.0
2018-Feb-16 13:44N 19°13' W 096°08'0 0.0
2018-Feb-16 13:26N 19°13' W 096°08'0 0.0
2018-Feb-16 12:56N 19°13' W 096°08'0 0.0
2018-Feb-16 12:14N 19°13' W 096°08'0 0.0
2018-Feb-16 11:44N 19°13' W 096°08'0 0.0
2018-Feb-16 10:56N 19°13' W 096°08'0 0.0
2018-Feb-16 10:20N 19°13' W 096°08'0 0.0
2018-Feb-16 09:50N 19°13' W 096°08'0 0.0
2018-Feb-16 09:29N 19°13' W 096°08'0 0.0
2018-Feb-16 08:53N 19°13' W 096°08'0 0.0
2018-Feb-16 08:20N 19°13' W 096°08'0 0.0
2018-Feb-16 07:56N 19°13' W 096°08'0 0.0
2018-Feb-16 07:20N 19°13' W 096°08'0 0.0
2018-Feb-16 06:50N 19°13' W 096°08'0 0.0
2018-Feb-16 06:29N 19°13' W 096°08'0 0.0
2018-Feb-16 05:47N 19°13' W 096°08'0 0.0
2018-Feb-16 05:11N 19°13' W 096°08'0 0.0
2018-Feb-16 04:53N 19°13' W 096°08'0 0.0
2018-Feb-16 04:26N 19°13' W 096°08'0 0.0
2018-Feb-16 03:53N 19°13' W 096°08'0 0.0
2018-Feb-16 03:14N 19°13' W 096°08'0 0.0
2018-Feb-16 02:59N 19°13' W 096°08'0 0.0
2018-Feb-16 02:26N 19°13' W 096°08'0 0.0
2018-Feb-16 01:56N 19°13' W 096°08'0 0.0
2018-Feb-16 01:20N 19°13' W 096°08'0 0.0
2018-Feb-16 00:59N 19°13' W 096°08'0 0.0
2018-Feb-16 00:20N 19°13' W 096°08'0 0.0
2018-Feb-15 23:44N 19°13' W 096°08'0 0.0
2018-Feb-15 23:20N 19°13' W 096°08'0 0.0
2018-Feb-15 22:59N 19°13' W 096°08'0 0.0
2018-Feb-15 22:20N 19°13' W 096°08'0 0.0
2018-Feb-15 21:56N 19°13' W 096°08'0 0.0
2018-Feb-15 21:26N 19°13' W 096°08'0 0.0
2018-Feb-15 20:56N 19°13' W 096°08'0 0.0
2018-Feb-15 20:29N 19°13' W 096°08'0 0.1
2018-Feb-15 19:56N 19°13' W 096°08'0 0.1
2018-Feb-15 19:26N 19°13' W 096°08'0 0.0
2018-Feb-15 18:56N 19°13' W 096°08'0 0.5
2018-Feb-15 18:30N 19°13' W 096°08'4 7.1
2018-Feb-15 17:59N 19°12' W 096°04'3 6.3
2018-Feb-15 17:30N 19°10' W 096°02'0 0.4
2018-Feb-15 17:00N 19°10' W 096°02'0 0.0
2018-Feb-15 16:30N 19°10' W 096°02'0 0.0
2018-Feb-15 15:52N 19°10' W 096°02'0 0.0
2018-Feb-15 15:30N 19°10' W 096°02'0 0.0
2018-Feb-15 15:00N 19°10' W 096°02'0 0.0
2018-Feb-15 14:28N 19°10' W 096°02'0 0.0
2018-Feb-15 14:00N 19°10' W 096°02'0 0.0
2018-Feb-15 13:30N 19°10' W 096°02'0 0.0
2018-Feb-15 13:00N 19°10' W 096°02'0 0.0
2018-Feb-15 12:23N 19°10' W 096°02'0 0.0
2018-Feb-15 11:58N 19°10' W 096°02'0 0.0
2018-Feb-15 11:28N 19°10' W 096°02'0 0.0
2018-Feb-15 10:56N 19°10' W 096°02'0 0.0
2018-Feb-15 10:29N 19°10' W 096°02'0 0.0
2018-Feb-15 09:58N 19°10' W 096°02'0 0.0
2018-Feb-15 09:30N 19°10' W 096°02'0 0.0
2018-Feb-15 09:00N 19°10' W 096°02'0 0.1
2018-Feb-15 08:30N 19°10' W 096°02'1 2.2
2018-Feb-15 08:00N 19°11' W 096°01'5 8.5
2018-Feb-15 07:27N 19°15' W 095°60'3 6.2
2018-Feb-15 07:00N 19°18' W 096°00'711.3
2018-Feb-15 06:24N 19°25' W 096°00'  
2018-Feb-10 00:43N 29°33' W 094°54'210.2
2018-Feb-10 00:30N 29°35' W 094°56'510.3
2018-Feb-10 00:00N 29°39' W 094°58'5 8.4
2018-Feb-09 23:25N 29°43' W 095°01'7 5.6
2018-Feb-09 22:12N 29°44' W 095°09'4 0.2
2018-Feb-08 20:30N 29°46' W 095°05'8 8.3
2018-Feb-08 19:30N 29°39' W 094°58'1111.2
2018-Feb-08 18:30N 29°30' W 094°52'  

Dump ship's entire track history